createdAt,value
2019-03-15T00:01:52.905Z,99.90
2019-03-15T00:04:22.264Z,99.90
2019-03-15T00:06:51.590Z,99.90
2019-03-15T00:09:20.898Z,99.90
2019-03-15T00:11:50.173Z,99.90
2019-03-15T00:14:19.507Z,99.90
2019-03-15T00:16:48.838Z,99.90
2019-03-15T00:19:18.116Z,99.90
2019-03-15T00:21:47.643Z,99.90
2019-03-15T00:24:16.955Z,99.90
2019-03-15T00:26:46.330Z,99.90
2019-03-15T00:29:15.662Z,99.90
2019-03-15T00:31:44.974Z,99.90
2019-03-15T00:34:14.250Z,99.90
2019-03-15T00:36:43.617Z,99.90
2019-03-15T00:39:12.942Z,99.90
2019-03-15T00:41:42.252Z,99.90
2019-03-15T00:44:11.497Z,99.90
2019-03-15T00:46:40.831Z,99.90
2019-03-15T00:49:10.063Z,99.90
2019-03-15T00:51:39.295Z,99.90
2019-03-15T00:54:08.567Z,99.90
2019-03-15T00:56:37.897Z,99.90
2019-03-15T00:59:07.226Z,99.90
2019-03-15T01:01:36.645Z,99.90
2019-03-15T01:04:09.220Z,99.90
2019-03-15T01:06:36.893Z,99.90
2019-03-15T01:09:06.983Z,99.90
2019-03-15T01:11:36.432Z,99.90
2019-03-15T01:14:05.781Z,99.90
2019-03-15T01:16:35.013Z,99.90
2019-03-15T01:19:04.342Z,99.90
2019-03-15T01:21:33.575Z,99.90
2019-03-15T01:24:02.913Z,99.90
2019-03-15T01:26:32.241Z,99.90
2019-03-15T01:29:01.563Z,99.90
2019-03-15T01:31:30.798Z,99.90
2019-03-15T01:34:00.049Z,99.90
2019-03-15T01:36:29.321Z,99.90
2019-03-15T01:38:58.562Z,99.90
2019-03-15T01:41:27.883Z,99.90
2019-03-15T01:43:57.166Z,99.90
2019-03-15T01:46:26.981Z,99.90
2019-03-15T01:48:56.222Z,99.90
2019-03-15T01:51:25.576Z,99.90
2019-03-15T01:53:54.868Z,99.90
2019-03-15T01:56:24.158Z,99.90
2019-03-15T01:58:53.535Z,99.90
2019-03-15T02:01:22.833Z,99.90
2019-03-15T02:03:52.074Z,99.90
2019-03-15T02:06:21.238Z,99.90
2019-03-15T02:08:50.504Z,99.90
2019-03-15T02:11:19.738Z,99.90
2019-03-15T02:13:49.071Z,99.90
2019-03-15T02:16:18.302Z,99.90
2019-03-15T02:18:47.822Z,99.90
2019-03-15T02:21:17.098Z,99.90
2019-03-15T02:23:46.315Z,99.90
2019-03-15T02:26:15.623Z,99.90
2019-03-15T02:28:44.893Z,99.90
2019-03-15T02:31:14.132Z,99.90
2019-03-15T02:33:43.368Z,99.90
2019-03-15T02:36:13.947Z,99.90
2019-03-15T02:38:43.503Z,99.90
2019-03-15T02:41:12.818Z,99.90
2019-03-15T02:43:42.086Z,99.90
2019-03-15T02:46:11.326Z,99.90
2019-03-15T02:48:41.093Z,99.90
2019-03-15T02:51:10.430Z,99.90
2019-03-15T02:53:39.740Z,99.90
2019-03-15T02:56:08.977Z,99.90
2019-03-15T02:58:38.320Z,99.90
2019-03-15T03:01:07.712Z,99.90
2019-03-15T03:03:37.272Z,99.90
2019-03-15T03:06:06.587Z,99.90
2019-03-15T03:08:35.890Z,99.90
2019-03-15T03:11:05.240Z,99.90
2019-03-15T03:13:34.542Z,99.90
2019-03-15T03:16:04.181Z,99.90
2019-03-15T03:18:34.573Z,99.90
2019-03-15T03:21:04.134Z,99.90
2019-03-15T03:23:33.438Z,99.90
2019-03-15T03:26:02.803Z,99.90
2019-03-15T03:28:32.128Z,99.90
2019-03-15T03:31:01.396Z,99.90
2019-03-15T03:33:32.744Z,99.90
2019-03-15T03:36:01.982Z,99.90
2019-03-15T03:38:31.227Z,99.90
2019-03-15T03:41:00.546Z,99.90
2019-03-15T03:43:29.782Z,99.90
2019-03-15T03:45:59.103Z,99.90
2019-03-15T03:48:28.356Z,99.90
2019-03-15T03:50:59.954Z,99.90
2019-03-15T03:53:28.611Z,99.90
2019-03-15T03:55:57.841Z,99.90
2019-03-15T03:58:27.997Z,99.90
2019-03-15T04:00:57.290Z,99.90
2019-03-15T04:03:26.631Z,99.90
2019-03-15T04:05:55.949Z,99.90
2019-03-15T04:08:25.177Z,99.90
2019-03-15T04:10:54.503Z,99.90
2019-03-15T04:13:23.735Z,99.90
2019-03-15T04:15:53.094Z,99.90
2019-03-15T04:18:22.376Z,99.90
2019-03-15T04:20:51.729Z,99.90
2019-03-15T04:23:20.892Z,99.90
2019-03-15T04:25:50.122Z,99.90
2019-03-15T04:28:19.351Z,99.90
2019-03-15T04:30:48.684Z,99.90
2019-03-15T04:33:17.992Z,99.90
2019-03-15T04:35:47.241Z,99.90
2019-03-15T04:38:16.523Z,99.90
2019-03-15T04:40:45.744Z,99.90
2019-03-15T04:43:14.982Z,99.90
2019-03-15T04:45:44.225Z,99.90
2019-03-15T04:48:13.463Z,99.90
2019-03-15T04:50:42.768Z,99.90
2019-03-15T04:53:11.939Z,99.90
2019-03-15T04:55:41.210Z,99.90
2019-03-15T04:58:10.446Z,99.90
2019-03-15T05:00:39.762Z,99.90
2019-03-15T05:03:09.015Z,99.90
2019-03-15T05:05:38.239Z,99.90
2019-03-15T05:08:07.556Z,99.90
2019-03-15T05:10:36.816Z,99.90
2019-03-15T05:13:06.177Z,99.90
2019-03-15T05:15:35.422Z,99.90
2019-03-15T05:18:04.661Z,99.90
2019-03-15T05:20:34.058Z,99.90
2019-03-15T05:23:03.377Z,99.90
2019-03-15T05:25:32.698Z,99.90
2019-03-15T05:28:02.045Z,99.90
2019-03-15T05:30:31.386Z,99.90
2019-03-15T05:33:00.639Z,99.90
2019-03-15T05:35:30.045Z,99.90
2019-03-15T05:37:59.323Z,99.90
2019-03-15T05:40:28.643Z,99.90
2019-03-15T05:42:57.972Z,99.90
2019-03-15T05:45:27.283Z,99.90
2019-03-15T05:47:56.590Z,99.90
2019-03-15T05:50:25.908Z,99.90
2019-03-15T05:52:55.210Z,99.90
2019-03-15T05:55:24.559Z,99.90
2019-03-15T05:57:53.997Z,99.90
2019-03-15T06:00:24.364Z,99.90
2019-03-15T06:02:53.639Z,99.90
2019-03-15T06:05:22.896Z,99.90
2019-03-15T06:07:52.197Z,99.90
2019-03-15T06:10:21.535Z,99.90
2019-03-15T06:12:50.846Z,99.90
2019-03-15T06:15:20.173Z,99.90
2019-03-15T06:17:49.456Z,99.90
2019-03-15T06:20:18.790Z,99.90
2019-03-15T06:22:48.029Z,99.90
2019-03-15T06:25:17.378Z,99.90
2019-03-15T06:27:46.628Z,99.90
2019-03-15T06:30:15.968Z,99.90
2019-03-15T06:32:45.645Z,99.90
2019-03-15T06:35:14.860Z,99.90
2019-03-15T06:37:44.178Z,99.90
2019-03-15T06:40:14.157Z,99.90
2019-03-15T06:42:43.714Z,99.90
2019-03-15T06:45:13.063Z,99.90
2019-03-15T06:47:42.398Z,99.90
2019-03-15T06:50:11.812Z,99.90
2019-03-15T06:52:41.139Z,99.90
2019-03-15T06:55:10.719Z,99.90
2019-03-15T06:57:40.560Z,99.90
2019-03-15T07:00:10.278Z,99.90
2019-03-15T07:02:39.523Z,99.90
2019-03-15T07:05:11.849Z,99.90
2019-03-15T07:07:39.858Z,99.90
2019-03-15T07:10:09.111Z,99.90
2019-03-15T07:12:40.241Z,99.90
2019-03-15T07:15:09.848Z,99.90
2019-03-15T07:17:39.338Z,99.90
2019-03-15T07:20:09.495Z,99.90
2019-03-15T07:22:38.840Z,99.90
2019-03-15T07:25:08.701Z,99.90
2019-03-15T07:27:38.015Z,99.90
2019-03-15T07:30:07.847Z,99.90
2019-03-15T07:32:56.576Z,99.90
2019-03-15T07:35:26.505Z,99.90
2019-03-15T07:37:55.770Z,99.90
2019-03-15T07:40:25.007Z,99.90
2019-03-15T07:42:54.248Z,99.90
2019-03-15T07:45:23.599Z,99.90
2019-03-15T07:47:52.911Z,99.90
2019-03-15T07:50:22.146Z,99.90
2019-03-15T07:52:51.723Z,99.90
2019-03-15T07:55:21.814Z,99.90
2019-03-15T07:57:51.079Z,99.90
2019-03-15T08:00:20.364Z,99.90
2019-03-15T08:02:49.703Z,99.90
2019-03-15T08:05:18.951Z,99.90
2019-03-15T08:07:49.566Z,99.90
2019-03-15T08:10:18.718Z,99.90
2019-03-15T08:12:49.568Z,99.90
2019-03-15T08:15:18.935Z,99.90
2019-03-15T08:17:48.281Z,99.90
2019-03-15T08:20:17.510Z,99.90
2019-03-15T08:22:48.715Z,99.90
2019-03-15T08:25:18.025Z,99.90
2019-03-15T08:27:47.734Z,99.90
2019-03-15T08:30:17.098Z,99.90
2019-03-15T08:32:46.330Z,99.90
2019-03-15T08:35:15.637Z,99.90
2019-03-15T08:37:44.969Z,99.90
2019-03-15T08:40:14.419Z,99.90
2019-03-15T08:42:43.781Z,99.90
2019-03-15T08:45:13.827Z,99.90
2019-03-15T08:47:43.071Z,99.90
2019-03-15T08:50:15.056Z,99.90
2019-03-15T08:52:44.444Z,99.90
2019-03-15T08:55:15.069Z,99.90
2019-03-15T08:57:44.427Z,99.90
2019-03-15T09:00:13.862Z,99.90
2019-03-15T09:02:43.103Z,99.90
2019-03-15T09:05:12.370Z,99.90
2019-03-15T09:07:42.506Z,99.90
2019-03-15T09:10:21.864Z,99.90
2019-03-15T09:12:42.796Z,99.90
2019-03-15T09:15:12.621Z,99.90
2019-03-15T09:17:42.197Z,99.90
2019-03-15T09:20:11.624Z,99.90
2019-03-15T09:22:40.891Z,99.90
2019-03-15T09:25:19.221Z,99.90
2019-03-15T09:27:45.038Z,99.90
2019-03-15T09:30:22.528Z,99.90
2019-03-15T09:32:43.538Z,99.90
2019-03-15T09:35:12.837Z,99.90
2019-03-15T09:37:42.162Z,99.90
2019-03-15T09:40:11.678Z,99.90
2019-03-15T09:42:40.969Z,99.90
2019-03-15T09:45:11.662Z,99.90
2019-03-15T09:47:41.010Z,99.90
2019-03-15T09:50:21.002Z,99.90
2019-03-15T09:52:42.167Z,99.90
2019-03-15T09:55:11.509Z,99.90
2019-03-15T09:57:40.770Z,99.60
2019-03-15T10:00:13.184Z,99.90
2019-03-15T10:02:42.498Z,99.20
2019-03-15T10:05:12.164Z,99.00
2019-03-15T10:07:43.261Z,99.20
2019-03-15T10:10:14.080Z,98.90
2019-03-15T10:12:43.503Z,98.20
2019-03-15T10:15:12.824Z,98.20
2019-03-15T10:17:42.064Z,97.90
2019-03-15T10:20:12.811Z,97.60
2019-03-15T10:22:42.997Z,97.10
2019-03-15T10:25:12.246Z,97.80
2019-03-15T10:27:41.920Z,97.10
2019-03-15T10:30:12.651Z,97.50
2019-03-15T10:32:41.959Z,96.40
2019-03-15T10:35:11.362Z,96.60
2019-03-15T10:37:40.626Z,97.10
2019-03-15T10:40:12.254Z,96.50
2019-03-15T10:42:41.589Z,97.30
2019-03-15T10:45:10.818Z,98.40
2019-03-15T10:47:42.434Z,99.50
2019-03-15T10:50:11.521Z,99.90
2019-03-15T10:52:40.855Z,99.90
2019-03-15T10:55:10.383Z,99.90
2019-03-15T10:57:39.666Z,99.90
2019-03-15T11:00:11.135Z,99.90
2019-03-15T11:02:40.422Z,99.90
2019-03-15T11:05:10.153Z,99.90
2019-03-15T11:07:39.458Z,99.90
2019-03-15T11:10:08.774Z,99.90
2019-03-15T11:12:38.829Z,99.90
2019-03-15T11:15:08.772Z,99.90
2019-03-15T11:17:38.057Z,99.90
2019-03-15T11:20:07.638Z,99.90
2019-03-15T11:22:36.950Z,99.10
2019-03-15T11:25:06.212Z,99.30
2019-03-15T11:27:35.514Z,98.60
2019-03-15T11:30:05.542Z,98.40
2019-03-15T11:32:34.875Z,97.40
2019-03-15T11:35:05.471Z,97.40
2019-03-15T11:37:35.242Z,96.70
2019-03-15T11:40:05.224Z,95.60
2019-03-15T11:42:34.555Z,96.70
2019-03-15T11:45:04.120Z,96.60
2019-03-15T11:47:50.266Z,96.70
2019-03-15T11:50:04.708Z,97.00
2019-03-15T11:52:33.994Z,97.40
2019-03-15T11:55:03.741Z,97.80
2019-03-15T11:57:33.072Z,98.80
2019-03-15T12:00:02.433Z,99.40
2019-03-15T12:02:31.759Z,99.90
2019-03-15T12:05:01.570Z,99.90
2019-03-15T12:07:30.912Z,99.50
2019-03-15T12:10:00.432Z,98.70
2019-03-15T12:12:29.920Z,98.90
2019-03-15T12:14:59.230Z,98.80
2019-03-15T12:17:28.609Z,99.10
2019-03-15T12:19:57.947Z,99.20
2019-03-15T12:22:27.563Z,99.00
2019-03-15T12:24:57.313Z,98.90
2019-03-15T12:27:26.545Z,99.60
2019-03-15T12:29:55.755Z,99.10
2019-03-15T12:32:25.066Z,99.00
2019-03-15T12:34:54.376Z,98.60
2019-03-15T12:37:23.706Z,98.40
2019-03-15T12:39:52.895Z,98.00
2019-03-15T12:42:22.195Z,97.80
2019-03-15T12:44:51.751Z,98.20
2019-03-15T12:47:21.051Z,98.00
2019-03-15T12:49:50.359Z,97.90
2019-03-15T12:52:20.711Z,98.40
2019-03-15T12:54:50.634Z,98.60
2019-03-15T12:57:19.938Z,98.30
2019-03-15T12:59:49.337Z,98.30
2019-03-15T13:02:20.339Z,98.40
2019-03-15T13:04:51.934Z,98.40
2019-03-15T13:07:21.043Z,98.40
2019-03-15T13:09:50.321Z,98.30
2019-03-15T13:12:19.647Z,99.60
2019-03-15T13:14:49.027Z,99.90
2019-03-15T13:17:18.344Z,99.90
2019-03-15T13:19:54.982Z,99.90
2019-03-15T13:22:18.688Z,99.90
2019-03-15T13:24:48.013Z,99.90
2019-03-15T13:27:17.373Z,99.90
2019-03-15T13:29:46.688Z,99.90
2019-03-15T13:32:16.013Z,99.90
2019-03-15T13:34:45.398Z,99.90
2019-03-15T13:37:14.647Z,99.90
2019-03-15T13:39:43.964Z,99.90
2019-03-15T13:42:13.392Z,99.90
2019-03-15T13:44:44.651Z,99.90
2019-03-15T13:47:14.757Z,99.90
2019-03-15T13:49:47.059Z,99.90
2019-03-15T13:52:20.400Z,99.90
2019-03-15T13:54:55.633Z,99.90
2019-03-15T13:57:25.102Z,99.90
2019-03-15T13:59:54.427Z,99.90
2019-03-15T14:02:23.782Z,99.90
2019-03-15T14:04:53.026Z,99.90
2019-03-15T14:07:22.337Z,99.90
2019-03-15T14:09:54.024Z,99.90
2019-03-15T14:12:23.317Z,99.90
2019-03-15T14:14:52.560Z,99.90
2019-03-15T14:17:21.923Z,99.90
2019-03-15T14:19:51.170Z,99.90
2019-03-15T14:22:20.492Z,99.90
2019-03-15T14:24:49.824Z,99.90
2019-03-15T14:27:19.139Z,99.90
2019-03-15T14:29:48.453Z,99.90
2019-03-15T14:32:17.710Z,99.90
2019-03-15T14:34:47.028Z,99.90
2019-03-15T14:37:16.381Z,99.90
2019-03-15T14:39:45.696Z,99.90
2019-03-15T14:42:15.033Z,99.90
2019-03-15T14:44:44.375Z,99.90
2019-03-15T14:47:13.641Z,99.90
2019-03-15T14:49:42.923Z,99.90
2019-03-15T14:52:12.291Z,99.90
2019-03-15T14:54:42.451Z,99.90
2019-03-15T14:57:11.925Z,99.90
2019-03-15T14:59:41.189Z,99.90
2019-03-15T15:02:10.419Z,99.90
2019-03-15T15:04:39.783Z,99.90
2019-03-15T15:07:09.119Z,99.90
2019-03-15T15:09:38.551Z,99.90
2019-03-15T15:12:08.062Z,99.90
2019-03-15T15:14:37.361Z,99.90
2019-03-15T15:17:06.735Z,99.90
2019-03-15T15:19:36.129Z,99.90
2019-03-15T15:22:05.399Z,99.90
2019-03-15T15:24:34.686Z,99.90
2019-03-15T15:27:03.954Z,99.90
2019-03-15T15:29:33.818Z,99.90
2019-03-15T15:32:03.160Z,99.90
2019-03-15T15:34:32.406Z,99.90
2019-03-15T15:37:02.258Z,99.90
2019-03-15T15:39:31.595Z,99.90
2019-03-15T15:42:00.841Z,99.90
2019-03-15T15:44:30.096Z,99.90
2019-03-15T15:46:59.435Z,99.90
2019-03-15T15:49:28.833Z,99.90
2019-03-15T15:51:58.199Z,99.90
2019-03-15T15:54:27.551Z,99.90
2019-03-15T15:56:56.863Z,99.90
2019-03-15T15:59:26.113Z,99.90
2019-03-15T16:01:55.438Z,99.90
2019-03-15T16:04:24.751Z,99.90
2019-03-15T16:06:54.015Z,99.90
2019-03-15T16:09:23.340Z,99.90
2019-03-15T16:11:52.710Z,99.90
2019-03-15T16:14:21.935Z,99.90
2019-03-15T16:16:51.180Z,99.90
2019-03-15T16:19:20.452Z,99.90
2019-03-15T16:21:49.874Z,99.90
2019-03-15T16:24:19.237Z,99.90
2019-03-15T16:26:48.599Z,99.90
2019-03-15T16:29:17.936Z,99.90
2019-03-15T16:31:47.289Z,99.90
2019-03-15T16:34:16.576Z,99.90
2019-03-15T16:36:45.825Z,99.90
2019-03-15T16:39:15.248Z,99.90
2019-03-15T16:41:44.900Z,99.90
2019-03-15T16:44:14.144Z,99.90
2019-03-15T16:46:43.466Z,99.90
2019-03-15T16:49:12.749Z,99.90
2019-03-15T16:51:42.016Z,99.90
2019-03-15T16:54:11.308Z,99.90
2019-03-15T16:56:40.779Z,99.90
2019-03-15T16:59:10.542Z,99.90
2019-03-15T17:01:39.868Z,99.90
2019-03-15T17:04:09.208Z,99.90
2019-03-15T17:06:38.970Z,99.90
2019-03-15T17:09:09.617Z,99.90
2019-03-15T17:11:38.940Z,99.90
2019-03-15T17:14:08.195Z,99.90
2019-03-15T17:16:37.509Z,99.90
2019-03-15T17:19:07.506Z,99.90
2019-03-15T17:21:36.750Z,99.90
2019-03-15T17:24:06.119Z,99.90
2019-03-15T17:26:35.368Z,99.90
2019-03-15T17:29:04.587Z,99.90
2019-03-15T17:31:33.978Z,99.90
2019-03-15T17:34:03.319Z,99.90
2019-03-15T17:36:32.720Z,99.90
2019-03-15T17:39:02.035Z,99.90
2019-03-15T17:41:31.363Z,99.90
2019-03-15T17:44:00.717Z,99.90
2019-03-15T17:46:30.640Z,99.90
2019-03-15T17:48:59.968Z,99.90
2019-03-15T17:51:29.312Z,99.90
2019-03-15T17:53:58.612Z,99.90
2019-03-15T17:56:27.951Z,99.90
2019-03-15T17:58:57.319Z,99.90
2019-03-15T18:01:26.679Z,99.90
2019-03-15T18:03:56.409Z,99.90
2019-03-15T18:06:25.921Z,99.90
2019-03-15T18:08:55.240Z,99.90
2019-03-15T18:11:24.538Z,99.90
2019-03-15T18:13:53.900Z,99.90
2019-03-15T18:16:23.187Z,99.90
2019-03-15T18:18:52.455Z,99.90
2019-03-15T18:21:21.805Z,99.90
2019-03-15T18:23:51.887Z,99.90
2019-03-15T18:26:21.298Z,99.90
2019-03-15T18:28:50.654Z,99.90
2019-03-15T18:31:19.978Z,99.90
2019-03-15T18:33:49.368Z,99.90
2019-03-15T18:36:18.997Z,99.90
2019-03-15T18:38:48.916Z,99.90
2019-03-15T18:41:18.160Z,99.90
2019-03-15T18:43:47.552Z,99.90
2019-03-15T18:46:16.876Z,99.90
2019-03-15T18:48:46.164Z,99.90
2019-03-15T18:51:15.557Z,99.90
2019-03-15T18:53:45.143Z,99.90
2019-03-15T18:56:14.495Z,99.90
2019-03-15T18:58:43.792Z,99.90
2019-03-15T19:01:13.368Z,99.90
2019-03-15T19:03:42.625Z,99.90
2019-03-15T19:06:12.442Z,99.90
2019-03-15T19:08:41.727Z,99.90
2019-03-15T19:11:11.046Z,99.90
2019-03-15T19:13:40.395Z,99.90
2019-03-15T19:16:19.601Z,99.90
2019-03-15T19:18:40.630Z,99.90
2019-03-15T19:21:10.010Z,99.90
2019-03-15T19:23:39.362Z,99.90
2019-03-15T19:26:08.678Z,99.90
2019-03-15T19:28:38.084Z,99.90
2019-03-15T19:31:07.349Z,99.90
2019-03-15T19:33:36.606Z,99.90
2019-03-15T19:36:06.990Z,99.90
2019-03-15T19:38:36.215Z,99.90
2019-03-15T19:41:05.605Z,99.90
2019-03-15T19:43:35.366Z,99.90
2019-03-15T19:46:04.664Z,99.90
2019-03-15T19:48:33.906Z,99.90
2019-03-15T19:51:03.230Z,99.80
2019-03-15T19:53:32.533Z,99.90
2019-03-15T19:56:01.928Z,99.90
2019-03-15T19:58:31.214Z,99.90
2019-03-15T20:01:00.566Z,99.90
2019-03-15T20:03:43.285Z,99.90
2019-03-15T20:06:01.186Z,99.90
2019-03-15T20:08:30.524Z,99.90
2019-03-15T20:10:59.741Z,99.90
2019-03-15T20:13:29.013Z,99.90
2019-03-15T20:15:58.285Z,99.90
2019-03-15T20:18:27.598Z,99.90
2019-03-15T20:20:56.887Z,99.90
2019-03-15T20:23:26.216Z,99.90
2019-03-15T20:25:55.455Z,99.90
2019-03-15T20:28:24.793Z,99.90
2019-03-15T20:30:54.104Z,99.90
2019-03-15T20:33:23.370Z,99.90
2019-03-15T20:35:53.571Z,99.90
2019-03-15T20:38:22.842Z,99.90
2019-03-15T20:40:52.162Z,99.90
2019-03-15T20:43:21.685Z,99.90
2019-03-15T20:45:51.085Z,99.90
2019-03-15T20:48:20.417Z,99.90
2019-03-15T20:50:49.881Z,99.90
2019-03-15T20:53:19.239Z,99.90
2019-03-15T20:55:48.680Z,99.90
2019-03-15T20:58:18.162Z,99.90
2019-03-15T21:00:47.546Z,99.90
2019-03-15T21:03:17.486Z,99.90
2019-03-15T21:05:46.730Z,99.90
2019-03-15T21:08:16.115Z,99.90
2019-03-15T21:10:45.530Z,99.90
2019-03-15T21:13:14.857Z,99.90
2019-03-15T21:15:44.594Z,99.90
2019-03-15T21:18:14.067Z,99.90
2019-03-15T21:20:45.964Z,99.90
2019-03-15T21:23:15.333Z,99.90
2019-03-15T21:25:44.690Z,99.90
2019-03-15T21:28:14.971Z,99.90
2019-03-15T21:30:48.624Z,99.90
2019-03-15T21:33:15.351Z,99.90
2019-03-15T21:35:44.760Z,99.90
2019-03-15T21:38:14.148Z,99.90
2019-03-15T21:40:43.471Z,99.90
2019-03-15T21:43:12.831Z,99.90
2019-03-15T21:45:42.199Z,99.90
2019-03-15T21:48:11.591Z,99.90
2019-03-15T21:50:40.954Z,99.90
2019-03-15T21:53:10.470Z,99.90
2019-03-15T21:55:39.803Z,99.90
2019-03-15T21:58:09.043Z,99.90
2019-03-15T22:00:38.460Z,99.90
2019-03-15T22:03:07.690Z,99.90
2019-03-15T22:05:37.229Z,99.90
2019-03-15T22:08:06.562Z,99.90
2019-03-15T22:10:35.809Z,99.90
2019-03-15T22:13:05.133Z,99.90
2019-03-15T22:15:34.455Z,99.90
2019-03-15T22:18:03.780Z,99.90
2019-03-15T22:20:33.124Z,99.90
2019-03-15T22:23:02.737Z,99.90
2019-03-15T22:25:32.062Z,99.90
2019-03-15T22:28:01.389Z,99.90
2019-03-15T22:30:30.617Z,99.90
2019-03-15T22:32:59.892Z,99.90
2019-03-15T22:35:31.175Z,99.90
2019-03-15T22:38:00.483Z,99.90
2019-03-15T22:40:29.933Z,99.90
2019-03-15T22:42:59.164Z,99.90
2019-03-15T22:45:28.474Z,99.90
2019-03-15T22:47:57.815Z,99.90
2019-03-15T22:50:27.062Z,99.90
2019-03-15T22:52:56.355Z,99.90
2019-03-15T22:55:25.658Z,99.90
2019-03-15T22:57:59.929Z,99.90
2019-03-15T23:00:30.430Z,99.90
2019-03-15T23:02:59.789Z,99.90
2019-03-15T23:05:29.211Z,99.90
2019-03-15T23:07:58.551Z,99.90
2019-03-15T23:10:28.129Z,99.90
2019-03-15T23:12:57.758Z,99.90
2019-03-15T23:15:26.993Z,99.90
2019-03-15T23:17:56.334Z,99.90
2019-03-15T23:20:25.638Z,99.90
2019-03-15T23:22:55.124Z,99.90
2019-03-15T23:25:24.410Z,99.90
2019-03-15T23:27:53.758Z,99.90
2019-03-15T23:30:23.116Z,99.90
2019-03-15T23:32:52.369Z,99.90
2019-03-15T23:35:21.614Z,99.90
2019-03-15T23:37:50.957Z,99.90
2019-03-15T23:40:20.203Z,99.90
2019-03-15T23:42:49.430Z,99.90
2019-03-15T23:45:18.762Z,99.90
2019-03-15T23:47:47.987Z,99.90
2019-03-15T23:50:17.358Z,99.90
2019-03-15T23:52:46.900Z,99.90
2019-03-15T23:55:16.233Z,99.90
2019-03-15T23:57:45.473Z,99.90
